createdAt,value
2019-02-18T00:02:17.594Z,2.05
2019-02-18T00:04:49.617Z,2.01
2019-02-18T00:07:21.612Z,2.08
2019-02-18T00:09:53.626Z,2.03
2019-02-18T00:12:25.662Z,2.09
2019-02-18T00:14:57.616Z,2.02
2019-02-18T00:17:29.626Z,1.96
2019-02-18T00:20:01.629Z,1.93
2019-02-18T00:22:33.616Z,1.89
2019-02-18T00:25:05.613Z,1.88
2019-02-18T00:27:37.672Z,1.82
2019-02-18T00:30:09.634Z,1.82
2019-02-18T00:32:41.651Z,1.75
2019-02-18T00:35:13.651Z,1.72
2019-02-18T00:37:45.658Z,1.75
2019-02-18T00:40:17.654Z,1.76
2019-02-18T00:42:49.660Z,1.77
2019-02-18T00:45:21.661Z,1.72
2019-02-18T00:47:53.647Z,1.68
2019-02-18T00:50:25.678Z,1.65
2019-02-18T00:52:57.693Z,1.65
2019-02-18T00:55:29.669Z,1.54
2019-02-18T00:58:01.682Z,1.42
2019-02-18T01:00:33.907Z,1.35
2019-02-18T01:03:06.035Z,1.32
2019-02-18T01:05:38.021Z,1.47
2019-02-18T01:08:10.019Z,1.50
2019-02-18T01:10:41.999Z,1.42
2019-02-18T01:13:13.998Z,1.33
2019-02-18T01:15:45.975Z,1.26
2019-02-18T01:18:18.093Z,1.34
2019-02-18T01:20:50.081Z,1.31
2019-02-18T01:23:22.191Z,1.32
2019-02-18T01:25:54.161Z,1.27
2019-02-18T01:28:26.174Z,1.29
2019-02-18T01:30:58.203Z,1.35
2019-02-18T01:33:30.234Z,1.36
2019-02-18T01:36:02.205Z,1.46
2019-02-18T01:38:34.197Z,1.46
2019-02-18T01:41:06.175Z,1.44
2019-02-18T01:43:38.155Z,1.39
2019-02-18T01:46:10.096Z,1.41
2019-02-18T01:48:42.108Z,1.37
2019-02-18T01:51:14.085Z,1.32
2019-02-18T01:53:46.904Z,1.28
2019-02-18T01:56:18.891Z,1.28
2019-02-18T01:58:50.874Z,1.24
2019-02-18T02:01:22.829Z,1.21
2019-02-18T02:03:54.819Z,1.13
2019-02-18T02:06:26.772Z,1.03
2019-02-18T02:08:58.751Z,1.05
2019-02-18T02:11:30.760Z,1.04
2019-02-18T02:14:02.750Z,1.01
2019-02-18T02:16:34.716Z,1.01
2019-02-18T02:19:06.728Z,1.05
2019-02-18T02:21:38.696Z,0.99
2019-02-18T02:24:10.686Z,0.95
2019-02-18T02:26:42.658Z,0.89
2019-02-18T02:29:14.690Z,0.80
2019-02-18T02:31:46.687Z,0.75
2019-02-18T02:34:18.676Z,0.80
2019-02-18T02:36:50.667Z,0.77
2019-02-18T02:39:22.672Z,0.76
2019-02-18T02:41:54.649Z,0.78
2019-02-18T02:44:26.599Z,0.75
2019-02-18T02:46:58.575Z,0.71
2019-02-18T02:49:30.554Z,0.75
2019-02-18T02:52:02.517Z,0.65
2019-02-18T02:54:34.481Z,0.61
2019-02-18T02:57:06.489Z,0.53
2019-02-18T02:59:38.463Z,0.43
2019-02-18T03:02:10.464Z,0.47
2019-02-18T03:04:42.430Z,0.48
2019-02-18T03:07:14.412Z,0.50
2019-02-18T03:09:46.355Z,0.58
2019-02-18T03:12:18.362Z,0.63
2019-02-18T03:14:50.334Z,0.62
2019-02-18T03:17:22.340Z,0.66
2019-02-18T03:19:54.325Z,0.76
2019-02-18T03:22:26.333Z,0.72
2019-02-18T03:25:21.420Z,0.75
2019-02-18T03:28:06.503Z,0.77
2019-02-18T03:30:43.952Z,0.77
2019-02-18T03:33:19.330Z,0.76
2019-02-18T03:35:51.330Z,0.75
2019-02-18T03:38:31.275Z,0.77
2019-02-18T03:41:03.255Z,0.79
2019-02-18T03:43:31.033Z,0.80
2019-02-18T03:46:02.993Z,0.77
2019-02-18T03:48:34.996Z,0.82
2019-02-18T03:51:06.975Z,0.80
2019-02-18T03:53:38.956Z,0.68
2019-02-18T03:56:10.906Z,0.76
2019-02-18T03:58:42.889Z,0.73
2019-02-18T04:01:14.835Z,0.76
2019-02-18T04:03:46.811Z,0.83
2019-02-18T04:06:18.774Z,0.84
2019-02-18T04:08:50.742Z,0.87
2019-02-18T04:11:22.712Z,0.86
2019-02-18T04:13:54.733Z,0.79
2019-02-18T04:16:26.670Z,0.71
2019-02-18T04:18:58.667Z,0.64
2019-02-18T04:21:30.645Z,0.66
2019-02-18T04:24:02.622Z,0.63
2019-02-18T04:26:34.585Z,0.70
2019-02-18T04:29:06.700Z,0.71
2019-02-18T04:31:38.657Z,0.74
2019-02-18T04:34:10.666Z,0.77
2019-02-18T04:36:42.876Z,0.80
2019-02-18T04:39:15.303Z,0.78
2019-02-18T04:41:47.292Z,0.75
2019-02-18T04:44:19.298Z,0.81
2019-02-18T04:46:51.516Z,0.78
2019-02-18T04:49:23.522Z,0.67
2019-02-18T04:51:55.502Z,0.60
2019-02-18T04:54:27.473Z,0.54
2019-02-18T04:56:59.451Z,0.51
2019-02-18T04:59:31.420Z,0.51
2019-02-18T05:02:03.399Z,0.48
2019-02-18T05:04:35.355Z,0.51
2019-02-18T05:07:07.331Z,0.52
2019-02-18T05:09:40.125Z,0.55
2019-02-18T05:12:12.349Z,0.62
2019-02-18T05:14:44.335Z,0.61
2019-02-18T05:17:16.350Z,0.59
2019-02-18T05:19:48.330Z,0.61
2019-02-18T05:22:20.308Z,0.57
2019-02-18T05:24:52.265Z,0.54
2019-02-18T05:27:33.097Z,0.56
2019-02-18T05:29:58.097Z,0.53
2019-02-18T05:32:30.101Z,0.54
2019-02-18T05:35:02.098Z,0.51
2019-02-18T05:37:34.045Z,0.45
2019-02-18T05:40:06.069Z,0.44
2019-02-18T05:42:38.053Z,0.39
2019-02-18T05:45:10.082Z,0.31
2019-02-18T05:47:42.088Z,0.24
2019-02-18T05:50:14.078Z,0.26
2019-02-18T05:52:46.068Z,0.29
2019-02-18T05:55:18.025Z,0.33
2019-02-18T05:57:50.021Z,0.30
2019-02-18T06:00:21.976Z,0.34
2019-02-18T06:02:53.974Z,0.35
2019-02-18T06:05:25.946Z,0.33
2019-02-18T06:07:57.944Z,0.31
2019-02-18T06:10:29.932Z,0.37
2019-02-18T06:13:01.943Z,0.38
2019-02-18T06:15:33.917Z,0.39
2019-02-18T06:18:05.964Z,0.34
2019-02-18T06:20:37.954Z,0.39
2019-02-18T06:23:09.933Z,0.40
2019-02-18T06:25:41.966Z,0.27
2019-02-18T06:28:13.976Z,0.24
2019-02-18T06:30:45.932Z,0.27
2019-02-18T06:33:17.923Z,0.19
2019-02-18T06:35:50.417Z,0.16
2019-02-18T06:38:22.447Z,0.18
2019-02-18T06:40:54.415Z,0.16
2019-02-18T06:43:26.420Z,0.24
2019-02-18T06:46:12.194Z,0.33
2019-02-18T06:48:50.985Z,0.43
2019-02-18T06:51:22.962Z,0.47
2019-02-18T06:53:55.000Z,0.54
2019-02-18T06:56:46.540Z,0.56
2019-02-18T06:59:24.166Z,0.74
2019-02-18T07:02:15.773Z,0.93
2019-02-18T07:05:07.412Z,1.17
2019-02-18T07:07:59.085Z,1.31
2019-02-18T07:10:50.644Z,1.43
2019-02-18T07:13:22.627Z,1.77
2019-02-18T07:15:54.643Z,1.94
2019-02-18T07:18:26.652Z,2.30
2019-02-18T07:20:58.662Z,2.62
2019-02-18T07:23:30.647Z,2.92
2019-02-18T07:26:02.655Z,2.98
2019-02-18T07:28:34.689Z,3.11
2019-02-18T07:31:06.720Z,3.28
2019-02-18T07:33:38.684Z,3.49
2019-02-18T07:36:10.674Z,3.56
2019-02-18T07:38:42.679Z,3.71
2019-02-18T07:41:14.690Z,3.84
2019-02-18T07:43:46.680Z,4.03
2019-02-18T07:46:18.653Z,4.11
2019-02-18T07:48:50.631Z,4.16
2019-02-18T07:51:22.652Z,4.13
2019-02-18T07:53:54.614Z,4.04
2019-02-18T07:56:26.604Z,4.28
2019-02-18T07:58:58.586Z,4.47
2019-02-18T08:01:30.589Z,4.58
2019-02-18T08:04:02.560Z,4.83
2019-02-18T08:06:34.565Z,4.83
2019-02-18T08:09:06.773Z,4.73
2019-02-18T08:11:38.774Z,4.82
2019-02-18T08:14:10.769Z,5.06
2019-02-18T08:16:42.774Z,5.16
2019-02-18T08:19:15.658Z,5.35
2019-02-18T08:24:26.910Z,5.46
2019-02-18T08:26:58.930Z,5.57
2019-02-18T08:29:30.933Z,5.65
2019-02-18T08:32:02.925Z,5.67
2019-02-18T08:34:34.914Z,5.74
2019-02-18T08:37:06.953Z,5.90
2019-02-18T08:39:38.961Z,6.13
2019-02-18T08:42:10.984Z,6.21
2019-02-18T08:44:42.958Z,6.33
2019-02-18T08:47:14.954Z,6.20
2019-02-18T08:49:46.971Z,6.37
2019-02-18T08:52:18.992Z,6.56
2019-02-18T08:54:56.608Z,6.85
2019-02-18T08:57:24.963Z,6.97
2019-02-18T08:59:56.973Z,7.22
2019-02-18T09:02:28.959Z,7.15
2019-02-18T09:05:00.971Z,7.17
2019-02-18T09:07:32.966Z,7.29
2019-02-18T09:10:05.302Z,7.42
2019-02-18T09:12:37.283Z,7.75
2019-02-18T09:15:09.480Z,7.84
2019-02-18T09:17:41.523Z,7.97
2019-02-18T09:20:13.587Z,8.17
2019-02-18T09:23:05.125Z,8.28
2019-02-18T09:25:56.709Z,8.58
2019-02-18T09:28:28.727Z,8.80
2019-02-18T09:31:00.735Z,8.94
2019-02-18T09:33:32.740Z,9.05
2019-02-18T09:36:04.748Z,9.20
2019-02-18T09:41:35.828Z,9.42
2019-02-18T09:44:07.873Z,9.73
2019-02-18T09:46:40.486Z,9.88
2019-02-18T09:49:13.853Z,10.03
2019-02-18T09:51:45.905Z,10.20
2019-02-18T09:54:17.889Z,10.28
2019-02-18T09:56:49.902Z,10.38
2019-02-18T09:59:23.940Z,10.54
2019-02-18T10:01:55.961Z,10.65
2019-02-18T10:04:28.036Z,10.69
2019-02-18T10:07:00.051Z,10.87
2019-02-18T10:09:32.046Z,11.01
2019-02-18T10:12:04.048Z,11.02
2019-02-18T10:14:36.041Z,11.18
2019-02-18T10:17:08.018Z,11.23
2019-02-18T10:19:40.025Z,11.41
2019-02-18T10:22:12.023Z,11.50
2019-02-18T10:24:50.726Z,11.80
2019-02-18T10:27:17.930Z,11.93
2019-02-18T10:29:50.027Z,12.01
2019-02-18T10:32:22.044Z,12.06
2019-02-18T10:34:54.082Z,12.15
2019-02-18T10:37:26.068Z,12.16
2019-02-18T10:39:58.099Z,12.29
2019-02-18T10:42:30.105Z,12.51
2019-02-18T10:45:02.146Z,12.60
2019-02-18T10:47:34.191Z,12.58
2019-02-18T10:50:07.067Z,12.62
2019-02-18T10:52:39.088Z,12.60
2019-02-18T10:55:11.184Z,12.73
2019-02-18T10:57:43.507Z,12.89
2019-02-18T11:00:15.517Z,12.98
2019-02-18T11:02:48.865Z,12.97
2019-02-18T11:05:20.858Z,13.04
2019-02-18T11:07:52.876Z,13.12
2019-02-18T11:10:24.866Z,13.22
2019-02-18T11:12:56.992Z,13.29
2019-02-18T11:15:29.284Z,13.60
2019-02-18T11:18:01.355Z,13.67
2019-02-18T11:20:33.350Z,13.80
2019-02-18T11:23:05.355Z,13.88
2019-02-18T11:25:37.346Z,14.12
2019-02-18T11:28:09.478Z,14.10
2019-02-18T11:30:41.485Z,14.15
2019-02-18T11:33:13.460Z,14.29
2019-02-18T11:35:45.437Z,14.40
2019-02-18T11:38:17.410Z,14.34
2019-02-18T11:40:49.433Z,14.33
2019-02-18T11:43:21.423Z,14.57
2019-02-18T11:45:53.404Z,14.69
2019-02-18T11:48:25.379Z,14.57
2019-02-18T11:50:57.787Z,14.64
2019-02-18T11:53:29.791Z,14.77
2019-02-18T11:56:01.790Z,14.67
2019-02-18T11:58:33.769Z,14.83
2019-02-18T12:01:05.761Z,14.98
2019-02-18T12:03:37.767Z,15.08
2019-02-18T12:06:09.761Z,15.21
2019-02-18T12:08:41.755Z,15.18
2019-02-18T12:11:13.760Z,15.22
2019-02-18T12:13:45.734Z,15.29
2019-02-18T12:16:17.750Z,15.25
2019-02-18T12:18:49.775Z,15.44
2019-02-18T12:21:21.828Z,15.41
2019-02-18T12:23:53.917Z,15.50
2019-02-18T12:26:25.921Z,15.48
2019-02-18T12:28:57.917Z,15.51
2019-02-18T12:31:29.899Z,15.37
2019-02-18T12:34:01.886Z,15.41
2019-02-18T12:36:33.866Z,15.35
2019-02-18T12:39:11.916Z,15.40
2019-02-18T12:41:48.817Z,15.52
2019-02-18T12:44:17.864Z,15.41
2019-02-18T12:46:49.888Z,15.39
2019-02-18T12:49:21.884Z,15.73
2019-02-18T12:51:53.881Z,15.67
2019-02-18T12:54:26.516Z,15.69
2019-02-18T12:56:58.593Z,15.76
2019-02-18T12:59:31.011Z,15.63
2019-02-18T13:02:03.281Z,15.76
2019-02-18T13:04:35.706Z,15.81
2019-02-18T13:07:07.696Z,15.88
2019-02-18T13:09:39.647Z,15.96
2019-02-18T13:12:11.700Z,16.03
2019-02-18T13:14:43.651Z,16.08
2019-02-18T13:17:15.661Z,15.95
2019-02-18T13:19:47.974Z,16.05
2019-02-18T13:22:20.053Z,16.08
2019-02-18T13:24:52.039Z,16.25
2019-02-18T13:27:24.012Z,16.29
2019-02-18T13:29:56.004Z,16.16
2019-02-18T13:32:28.404Z,16.10
2019-02-18T13:35:00.417Z,16.25
2019-02-18T13:37:32.407Z,16.25
2019-02-18T13:40:04.987Z,16.35
2019-02-18T13:42:37.015Z,16.21
2019-02-18T13:45:09.332Z,16.21
2019-02-18T13:47:41.445Z,16.17
2019-02-18T13:50:13.657Z,16.17
2019-02-18T13:52:45.658Z,16.23
2019-02-18T13:55:17.962Z,16.16
2019-02-18T13:57:49.904Z,16.25
2019-02-18T14:00:21.941Z,16.21
2019-02-18T14:02:53.891Z,16.23
2019-02-18T14:05:25.918Z,16.12
2019-02-18T14:07:57.884Z,16.23
2019-02-18T14:10:29.887Z,16.30
2019-02-18T14:13:01.874Z,16.25
2019-02-18T14:15:33.907Z,16.16
2019-02-18T14:18:06.061Z,16.05
2019-02-18T14:20:38.076Z,16.11
2019-02-18T14:23:10.088Z,16.37
2019-02-18T14:25:42.078Z,16.46
2019-02-18T14:28:14.053Z,16.41
2019-02-18T14:30:46.094Z,16.37
2019-02-18T14:33:18.680Z,16.32
2019-02-18T14:35:50.699Z,16.32
2019-02-18T14:38:22.721Z,16.34
2019-02-18T14:40:55.066Z,16.41
2019-02-18T14:43:27.083Z,16.44
2019-02-18T14:45:59.405Z,16.56
2019-02-18T14:48:31.378Z,16.53
2019-02-18T14:51:03.532Z,16.46
2019-02-18T14:53:35.534Z,16.42
2019-02-18T14:56:09.435Z,16.42
2019-02-18T14:58:41.417Z,16.27
2019-02-18T15:01:13.420Z,16.32
2019-02-18T15:03:45.413Z,16.20
2019-02-18T15:06:17.463Z,16.43
2019-02-18T15:08:49.466Z,16.31
2019-02-18T15:11:21.472Z,16.40
2019-02-18T15:13:53.506Z,16.25
2019-02-18T15:16:25.512Z,16.25
2019-02-18T15:18:57.560Z,16.43
2019-02-18T15:21:29.820Z,16.38
2019-02-18T15:24:01.802Z,16.27
2019-02-18T15:26:33.785Z,16.25
2019-02-18T15:29:05.776Z,16.43
2019-02-18T15:31:37.841Z,16.46
2019-02-18T15:34:10.370Z,16.40
2019-02-18T15:36:42.399Z,16.35
2019-02-18T15:39:14.383Z,16.17
2019-02-18T15:41:46.388Z,15.97
2019-02-18T15:44:18.429Z,15.76
2019-02-18T15:46:50.749Z,15.59
2019-02-18T15:49:22.777Z,15.42
2019-02-18T15:51:54.825Z,15.24
2019-02-18T15:54:26.900Z,15.10
2019-02-18T15:56:58.927Z,14.94
2019-02-18T15:59:30.937Z,14.77
2019-02-18T16:02:03.040Z,14.65
2019-02-18T16:04:35.121Z,14.50
2019-02-18T16:07:07.120Z,14.42
2019-02-18T16:09:39.188Z,14.60
2019-02-18T16:12:11.194Z,14.63
2019-02-18T16:14:43.247Z,14.33
2019-02-18T16:17:15.306Z,14.11
2019-02-18T16:19:47.372Z,13.92
2019-02-18T16:22:19.387Z,13.75
2019-02-18T16:24:51.426Z,13.66
2019-02-18T16:27:23.524Z,13.47
2019-02-18T16:29:55.567Z,13.35
2019-02-18T16:32:47.048Z,13.11
2019-02-18T16:35:19.067Z,12.92
2019-02-18T16:37:51.077Z,12.76
2019-02-18T16:40:23.123Z,12.61
2019-02-18T16:42:59.312Z,12.43
2019-02-18T16:45:29.122Z,12.31
2019-02-18T16:48:01.155Z,12.17
2019-02-18T16:50:33.186Z,11.98
2019-02-18T16:53:05.181Z,11.83
2019-02-18T16:55:39.143Z,11.70
2019-02-18T16:58:11.162Z,11.54
2019-02-18T17:00:43.235Z,11.34
2019-02-18T17:03:15.267Z,11.17
2019-02-18T17:05:47.377Z,10.94
2019-02-18T17:08:19.444Z,10.76
2019-02-18T17:10:51.500Z,10.62
2019-02-18T17:13:23.496Z,10.40
2019-02-18T17:15:55.570Z,10.21
2019-02-18T17:18:27.645Z,10.11
2019-02-18T17:20:59.744Z,9.93
2019-02-18T17:23:31.856Z,9.73
2019-02-18T17:26:03.933Z,9.67
2019-02-18T17:28:36.011Z,9.61
2019-02-18T17:31:08.034Z,9.60
2019-02-18T17:33:40.103Z,9.62
2019-02-18T17:36:12.135Z,9.57
2019-02-18T17:38:44.165Z,9.44
2019-02-18T17:41:16.232Z,9.36
2019-02-18T17:44:29.007Z,9.21
2019-02-18T17:49:39.767Z,8.88
2019-02-18T17:52:11.833Z,8.74
2019-02-18T17:54:43.904Z,8.61
2019-02-18T17:57:16.037Z,8.52
2019-02-18T17:59:48.070Z,8.45
2019-02-18T18:02:22.085Z,8.31
2019-02-18T18:04:54.134Z,8.25
2019-02-18T18:07:26.213Z,8.08
2019-02-18T18:09:58.276Z,7.94
2019-02-18T18:12:30.420Z,7.90
2019-02-18T18:15:02.594Z,7.78
2019-02-18T18:17:34.688Z,7.75
2019-02-18T18:20:07.653Z,7.74
2019-02-18T18:25:19.734Z,7.68
2019-02-18T18:27:51.841Z,7.53
2019-02-18T18:30:23.930Z,7.51
2019-02-18T18:32:56.041Z,7.46
2019-02-18T18:35:28.231Z,7.39
2019-02-18T18:38:00.332Z,7.32
2019-02-18T18:40:32.476Z,7.27
2019-02-18T18:43:04.621Z,7.18
2019-02-18T18:45:36.729Z,7.13
2019-02-18T18:48:08.777Z,7.12
2019-02-18T18:50:40.863Z,7.02
2019-02-18T18:53:12.866Z,6.87
2019-02-18T18:55:45.029Z,6.83
2019-02-18T18:58:17.045Z,6.71
2019-02-18T19:00:50.994Z,6.62
2019-02-18T19:03:23.101Z,6.54
2019-02-18T19:05:55.170Z,6.51
2019-02-18T19:08:27.210Z,6.49
2019-02-18T19:10:59.280Z,6.43
2019-02-18T19:13:31.343Z,6.42
2019-02-18T19:16:03.524Z,6.36
2019-02-18T19:18:35.764Z,6.35
2019-02-18T19:21:07.862Z,6.24
2019-02-18T19:23:41.797Z,6.13
2019-02-18T19:26:13.954Z,6.02
2019-02-18T19:28:46.557Z,5.94
2019-02-18T19:31:18.749Z,5.80
2019-02-18T19:33:51.373Z,5.77
2019-02-18T19:36:23.658Z,5.68
2019-02-18T19:39:15.453Z,5.58
2019-02-18T19:41:47.626Z,5.55
2019-02-18T19:44:20.050Z,5.51
2019-02-18T19:46:52.196Z,5.48
2019-02-18T19:49:24.278Z,5.40
2019-02-18T19:51:56.386Z,5.34
2019-02-18T19:54:28.573Z,5.31
2019-02-18T19:57:00.647Z,5.28
2019-02-18T19:59:32.728Z,5.21
2019-02-18T20:02:04.867Z,5.13
2019-02-18T20:04:36.972Z,5.02
2019-02-18T20:07:09.532Z,4.99
2019-02-18T20:09:41.635Z,4.94
2019-02-18T20:12:13.730Z,4.83
2019-02-18T20:14:46.038Z,4.78
2019-02-18T20:17:18.225Z,4.76
2019-02-18T20:19:50.711Z,4.80
2019-02-18T20:22:22.940Z,4.76
2019-02-18T20:24:55.632Z,4.70
2019-02-18T20:27:28.131Z,4.69
2019-02-18T20:30:00.309Z,4.61
2019-02-18T20:32:32.590Z,4.53
2019-02-18T20:35:04.883Z,4.44
2019-02-18T20:37:36.985Z,4.34
2019-02-18T20:40:09.304Z,4.29
2019-02-18T20:42:41.883Z,4.27
2019-02-18T20:45:14.372Z,4.22
2019-02-18T20:47:46.534Z,4.12
2019-02-18T20:50:18.597Z,4.12
2019-02-18T20:52:50.727Z,4.08
2019-02-18T20:55:23.129Z,4.04
2019-02-18T20:57:55.202Z,3.90
2019-02-18T21:00:27.241Z,3.85
2019-02-18T21:02:59.341Z,3.89
2019-02-18T21:05:31.402Z,3.85
2019-02-18T21:08:03.580Z,3.80
2019-02-18T21:10:35.632Z,3.75
2019-02-18T21:13:07.679Z,3.82
2019-02-18T21:15:40.833Z,3.74
2019-02-18T21:18:13.193Z,3.63
2019-02-18T21:20:47.095Z,3.58
2019-02-18T21:23:19.136Z,3.60
2019-02-18T21:25:51.197Z,3.47
2019-02-18T21:28:25.208Z,3.50
2019-02-18T21:30:57.369Z,3.38
2019-02-18T21:33:29.465Z,3.37
2019-02-18T21:36:01.755Z,3.37
2019-02-18T21:38:33.784Z,3.26
2019-02-18T21:41:05.826Z,3.25
2019-02-18T21:43:38.789Z,3.18
2019-02-18T21:46:10.827Z,3.22
2019-02-18T21:48:42.808Z,3.19
2019-02-18T21:51:14.873Z,3.19
2019-02-18T21:53:46.896Z,3.15
2019-02-18T21:56:18.955Z,3.13
2019-02-18T21:58:52.748Z,3.04
2019-02-18T22:01:24.794Z,3.01
2019-02-18T22:03:56.757Z,3.00
2019-02-18T22:06:29.325Z,2.99
2019-02-18T22:09:01.351Z,3.02
2019-02-18T22:11:33.375Z,2.93
2019-02-18T22:14:05.449Z,2.77
2019-02-18T22:16:38.614Z,2.85
2019-02-18T22:19:11.046Z,2.80
2019-02-18T22:21:43.484Z,2.78
2019-02-18T22:24:15.547Z,2.76
2019-02-18T22:26:47.578Z,2.69
2019-02-18T22:29:19.777Z,2.75
2019-02-18T22:31:52.205Z,2.70
2019-02-18T22:34:24.204Z,2.70
2019-02-18T22:36:56.258Z,2.70
2019-02-18T22:39:29.364Z,2.71
2019-02-18T22:42:01.377Z,2.73
2019-02-18T22:44:41.736Z,2.78
2019-02-18T22:47:09.477Z,2.51
2019-02-18T22:49:41.467Z,2.38
2019-02-18T22:52:13.467Z,2.36
2019-02-18T22:54:45.429Z,2.43
2019-02-18T22:57:17.462Z,2.48
2019-02-18T22:59:49.466Z,2.52
2019-02-18T23:02:22.772Z,2.53
2019-02-18T23:04:54.773Z,2.61
2019-02-18T23:07:26.944Z,2.53
2019-02-18T23:09:59.051Z,2.49
2019-02-18T23:12:32.867Z,2.42
2019-02-18T23:15:05.229Z,2.35
2019-02-18T23:17:37.305Z,2.21
2019-02-18T23:20:09.323Z,2.24
2019-02-18T23:22:41.328Z,2.29
2019-02-18T23:25:13.521Z,2.24
2019-02-18T23:27:45.522Z,2.24
2019-02-18T23:30:17.538Z,2.33
2019-02-18T23:32:49.577Z,2.35
2019-02-18T23:35:21.582Z,2.38
2019-02-18T23:37:53.541Z,2.36
2019-02-18T23:40:25.549Z,2.40
2019-02-18T23:42:57.519Z,2.39
2019-02-18T23:45:29.524Z,2.41
2019-02-18T23:48:01.503Z,2.36
2019-02-18T23:50:33.535Z,2.29
2019-02-18T23:53:05.947Z,2.23
2019-02-18T23:55:38.070Z,2.19
2019-02-18T23:58:10.037Z,2.16
